Time;durP1;ratioP1;P1;durP2;ratioP2;P2;SDS_P1;SDS_P2;PMS_P1;PMS_P2;Temp;Humidity;BMP_temperature;BMP_pressure;BME280_temperature;BME280_humidity;BME280_pressure;Samples;Min_cycle;Max_cycle;Signal;HPM_P1;HPM_P2
2021/12/19 00:10:07;;;;;;;5.97;4.33;;;;;;;;;;1872769;77;21051;-42
2021/12/19 00:12:36;;;;;;;6.53;4.42;;;;;;;;;;1872771;76;21039;-41
2021/12/19 00:15:05;;;;;;;6.20;4.40;;;;;;;;;;1873806;76;21047;-42
2021/12/19 00:17:34;;;;;;;7.70;4.17;;;;;;;;;;1891496;76;21073;-42
2021/12/19 00:20:03;;;;;;;5.83;4.15;;;;;;;;;;1891535;75;21038;-42
2021/12/19 00:22:32;;;;;;;6.47;4.33;;;;;;;;;;1891422;76;21076;-42
2021/12/19 00:25:01;;;;;;;5.67;3.70;;;;;;;;;;1891480;75;21034;-41
2021/12/19 00:27:30;;;;;;;7.28;4.37;;;;;;;;;;1891576;76;21088;-42
2021/12/19 00:29:59;;;;;;;6.28;4.20;;;;;;;;;;1891454;76;21093;-42
2021/12/19 00:32:27;;;;;;;6.10;4.58;;;;;;;;;;1891478;76;20998;-41
2021/12/19 00:34:56;;;;;;;7.55;4.83;;;;;;;;;;1891544;76;21014;-42
2021/12/19 00:37:25;;;;;;;7.25;4.20;;;;;;;;;;1891505;76;21105;-45
2021/12/19 00:39:54;;;;;;;8.78;5.08;;;;;;;;;;1891555;76;21046;-42
2021/12/19 00:42:30;;;;;;;6.30;4.50;;;;;;;;;;1891524;76;21082;-42
2021/12/19 00:45:02;;;;;;;7.78;4.10;;;;;;;;;;1890319;75;21027;-41
2021/12/19 00:47:29;;;;;;;5.60;4.05;;;;;;;;;;1891378;75;21485;-42
2021/12/19 00:49:57;;;;;;;7.08;5.12;;;;;;;;;;1891455;75;21104;-41
2021/12/19 00:52:26;;;;;;;6.08;4.00;;;;;;;;;;1891477;75;21042;-42
2021/12/19 00:54:55;;;;;;;6.42;4.17;;;;;;;;;;1891463;76;21023;-42
2021/12/19 00:57:24;;;;;;;6.72;4.70;;;;;;;;;;1891615;76;21329;-42
2021/12/19 00:59:52;;;;;;;6.70;4.40;;;;;;;;;;1891476;76;21038;-42
2021/12/19 01:02:21;;;;;;;7.50;4.12;;;;;;;;;;1891551;76;21100;-42
2021/12/19 01:04:51;;;;;;;7.45;4.05;;;;;;;;;;1891441;76;21042;-42
2021/12/19 01:07:19;;;;;;;7.62;4.17;;;;;;;;;;1891606;76;21085;-43
2021/12/19 01:09:48;;;;;;;8.35;4.95;;;;;;;;;;1891518;76;21030;-42
2021/12/19 01:12:17;;;;;;;8.43;5.45;;;;;;;;;;1891543;76;21030;-42
2021/12/19 01:14:46;;;;;;;6.45;4.67;;;;;;;;;;1891469;75;21002;-42
2021/12/19 01:17:16;;;;;;;13.20;5.03;;;;;;;;;;1891431;75;21081;-42
2021/12/19 01:19:48;;;;;;;7.95;4.90;;;;;;;;;;1890842;75;21085;-41
2021/12/19 01:22:17;;;;;;;9.05;5.72;;;;;;;;;;1891427;75;21038;-42
2021/12/19 01:24:45;;;;;;;7.62;4.70;;;;;;;;;;1891385;76;21104;-42
2021/12/19 01:27:14;;;;;;;8.05;5.30;;;;;;;;;;1891428;76;21093;-42
2021/12/19 01:29:43;;;;;;;7.78;4.58;;;;;;;;;;1891497;76;21043;-42
2021/12/19 01:32:12;;;;;;;6.95;4.60;;;;;;;;;;1891559;76;21034;-42
2021/12/19 01:34:41;;;;;;;5.97;4.37;;;;;;;;;;1891391;76;21030;-41
2021/12/19 01:37:09;;;;;;;8.43;5.33;;;;;;;;;;1891524;76;21030;-42
2021/12/19 01:39:38;;;;;;;6.58;4.15;;;;;;;;;;1891486;76;21108;-42
2021/12/19 01:42:09;;;;;;;8.50;5.45;;;;;;;;;;1891516;76;21112;-42
2021/12/19 01:44:38;;;;;;;8.85;5.58;;;;;;;;;;1891402;76;21022;-42
2021/12/19 01:47:07;;;;;;;6.58;4.72;;;;;;;;;;1891437;76;21034;-42
2021/12/19 01:49:36;;;;;;;8.18;5.28;;;;;;;;;;1891484;76;21472;-41
2021/12/19 01:52:05;;;;;;;6.97;4.80;;;;;;;;;;1891418;76;21042;-42
2021/12/19 01:54:34;;;;;;;6.83;4.60;;;;;;;;;;1891490;76;21022;-41
2021/12/19 01:57:02;;;;;;;6.83;4.80;;;;;;;;;;1891507;76;21088;-41
2021/12/19 01:59:31;;;;;;;6.70;4.60;;;;;;;;;;1891418;76;21042;-42
2021/12/19 02:01:59;;;;;;;5.37;4.45;;;;;;;;;;1891362;76;21030;-42
2021/12/19 02:04:30;;;;;;;12.50;4.58;;;;;;;;;;1891396;76;21110;-42
2021/12/19 02:06:59;;;;;;;7.10;4.67;;;;;;;;;;1891558;76;21512;-41
2021/12/19 02:09:28;;;;;;;7.87;4.72;;;;;;;;;;1891538;76;21556;-42
2021/12/19 02:11:59;;;;;;;7.30;4.80;;;;;;;;;;1891479;76;21054;-42
2021/12/19 02:14:27;;;;;;;7.22;5.05;;;;;;;;;;1891461;75;21046;-42
2021/12/19 02:16:56;;;;;;;9.08;5.53;;;;;;;;;;1891487;76;21123;-41
2021/12/19 02:19:25;;;;;;;7.45;5.22;;;;;;;;;;1891589;76;21085;-41
2021/12/19 02:21:53;;;;;;;8.18;5.00;;;;;;;;;;1891574;76;21088;-41
2021/12/19 02:24:22;;;;;;;11.85;5.53;;;;;;;;;;1891495;76;21058;-42
2021/12/19 02:26:51;;;;;;;9.23;4.90;;;;;;;;;;1891516;76;21100;-42
2021/12/19 02:29:20;;;;;;;7.85;4.83;;;;;;;;;;1891495;76;21038;-42
2021/12/19 02:31:49;;;;;;;10.32;4.47;;;;;;;;;;1891506;76;21043;-42
2021/12/19 02:34:22;;;;;;;9.90;5.33;;;;;;;;;;1891484;75;21042;-41
2021/12/19 02:50:12;;;;;;;8.58;4.83;;;;;;;;;;1891472;76;21152;-42
2021/12/19 02:52:40;;;;;;;7.62;4.35;;;;;;;;;;1891619;76;21022;-41
2021/12/19 02:55:09;;;;;;;7.78;4.42;;;;;;;;;;1891476;75;21019;-42
2021/12/19 02:57:39;;;;;;;10.75;5.67;;;;;;;;;;1891515;76;21023;-41
2021/12/19 03:00:09;;;;;;;7.15;5.03;;;;;;;;;;1891485;76;21092;-42
2021/12/19 03:02:38;;;;;;;6.67;4.90;;;;;;;;;;1891494;75;21104;-41
2021/12/19 03:05:07;;;;;;;10.10;4.80;;;;;;;;;;1891472;75;21038;-42
2021/12/19 03:07:40;;;;;;;9.40;5.40;;;;;;;;;;1891505;76;21104;-43
2021/12/19 03:18:24;;;;;;;8.98;5.70;;;;;;;;;;1891565;76;21044;-41
2021/12/19 03:20:53;;;;;;;13.03;5.92;;;;;;;;;;1891734;76;21042;-41
2021/12/19 03:23:22;;;;;;;9.58;5.33;;;;;;;;;;1891503;76;21093;-42
2021/12/19 03:25:51;;;;;;;10.88;6.45;;;;;;;;;;1891635;75;21046;-42
2021/12/19 03:28:19;;;;;;;13.20;6.33;;;;;;;;;;1891639;76;21089;-41
2021/12/19 03:30:49;;;;;;;8.43;5.35;;;;;;;;;;1891602;76;21108;-42
2021/12/19 03:33:17;;;;;;;9.78;6.20;;;;;;;;;;1891734;76;21018;-43
2021/12/19 03:35:46;;;;;;;12.50;6.75;;;;;;;;;;1891674;76;21010;-43
2021/12/19 03:38:15;;;;;;;8.30;5.78;;;;;;;;;;1891581;75;21121;-42
2021/12/19 03:40:51;;;;;;;9.68;6.60;;;;;;;;;;1891606;76;21027;-41
2021/12/19 03:43:15;;;;;;;11.80;7.10;;;;;;;;;;1890852;75;21030;-42
2021/12/19 03:45:45;;;;;;;9.83;5.78;;;;;;;;;;1891664;76;21030;-41
2021/12/19 03:48:15;;;;;;;8.13;5.17;;;;;;;;;;1891786;76;20998;-41
2021/12/19 03:50:45;;;;;;;8.95;5.37;;;;;;;;;;1891588;76;21054;-42
2021/12/19 03:53:14;;;;;;;8.25;5.53;;;;;;;;;;1891540;76;21449;-42
2021/12/19 03:55:43;;;;;;;8.90;5.87;;;;;;;;;;1891723;76;21026;-42
2021/12/19 03:58:13;;;;;;;8.83;4.97;;;;;;;;;;1891633;76;21022;-42
2021/12/19 04:00:43;;;;;;;10.80;5.15;;;;;;;;;;1891806;76;21096;-42
2021/12/19 04:03:17;;;;;;;9.03;5.25;;;;;;;;;;1891475;76;21100;-42
2021/12/19 04:05:42;;;;;;;7.37;5.30;;;;;;;;;;1891101;75;21006;-41
2021/12/19 04:08:11;;;;;;;9.40;5.12;;;;;;;;;;1891601;76;21101;-41
2021/12/19 04:10:40;;;;;;;10.85;6.12;;;;;;;;;;1891742;76;21109;-42
2021/12/19 04:13:09;;;;;;;9.70;6.03;;;;;;;;;;1891535;76;21101;-42
2021/12/19 04:15:37;;;;;;;7.37;5.42;;;;;;;;;;1891532;76;21026;-42
2021/12/19 04:18:06;;;;;;;8.90;4.80;;;;;;;;;;1891461;76;21175;-41
2021/12/19 04:20:35;;;;;;;8.93;5.58;;;;;;;;;;1891593;76;21026;-42
2021/12/19 04:23:04;;;;;;;11.05;5.75;;;;;;;;;;1891439;76;21116;-42
2021/12/19 04:25:33;;;;;;;9.73;6.42;;;;;;;;;;1891593;76;21104;-42
2021/12/19 04:28:02;;;;;;;10.48;6.05;;;;;;;;;;1891497;75;21042;-42
2021/12/19 04:30:30;;;;;;;8.98;6.05;;;;;;;;;;1891608;75;21042;-42
2021/12/19 04:33:06;;;;;;;11.08;5.83;;;;;;;;;;1891471;76;21047;-41
2021/12/19 04:35:34;;;;;;;8.23;5.37;;;;;;;;;;1891402;75;21556;-42
2021/12/19 04:40:55;;;;;;;7.30;4.70;;;;;;;;;;1857932;75;21089;-42
2021/12/19 04:44:14;;;;;;;6.42;5.10;;;;;;;;;;1889510;75;21488;-42
2021/12/19 04:54:27;;;;;;;8.23;4.78;;;;;;;;;;1891527;76;21101;-42
2021/12/19 05:02:28;;;;;;;9.38;4.53;;;;;;;;;;1891674;76;21519;-42
2021/12/19 05:15:44;;;;;;;7.03;5.17;;;;;;;;;;1891480;76;21116;-43
2021/12/19 05:18:10;;;;;;;6.65;4.70;;;;;;;;;;1891280;75;21524;-42
2021/12/19 05:20:50;;;;;;;14.47;7.65;;;;;;;;;;1891604;76;21082;-42
2021/12/19 05:23:22;;;;;;;6.55;5.00;;;;;;;;;;1890194;75;21516;-42
2021/12/19 05:25:43;;;;;;;9.80;4.30;;;;;;;;;;1890262;75;21034;-43
2021/12/19 05:28:11;;;;;;;5.58;4.28;;;;;;;;;;1891641;76;21038;-43
2021/12/19 05:30:40;;;;;;;7.25;4.22;;;;;;;;;;1891475;75;21041;-43
2021/12/19 05:33:09;;;;;;;7.37;4.33;;;;;;;;;;1891509;76;21038;-43
2021/12/19 05:36:03;;;;;;;6.53;4.33;;;;;;;;;;1891573;76;21038;-43
2021/12/19 05:46:39;;;;;;;6.30;3.83;;;;;;;;;;1891493;76;21081;-42
2021/12/19 05:49:09;;;;;;;5.45;4.90;;;;;;;;;;1891434;76;21108;-42
2021/12/19 05:51:38;;;;;;;8.08;4.10;;;;;;;;;;1891595;76;21100;-41
2021/12/19 05:54:09;;;;;;;8.38;4.75;;;;;;;;;;1891575;76;21112;-42
2021/12/19 05:56:37;;;;;;;8.88;5.17;;;;;;;;;;1891551;75;21050;-42
2021/12/19 05:59:10;;;;;;;7.87;4.35;;;;;;;;;;1891507;76;21092;-42
2021/12/19 06:01:37;;;;;;;6.72;4.33;;;;;;;;;;1891122;75;21735;-42
2021/12/19 06:04:06;;;;;;;7.92;4.37;;;;;;;;;;1891551;76;21143;-42
2021/12/19 06:06:35;;;;;;;6.17;4.60;;;;;;;;;;1891497;76;21097;-41
2021/12/19 06:09:04;;;;;;;7.50;4.50;;;;;;;;;;1891433;76;21038;-42
2021/12/19 06:11:33;;;;;;;6.55;4.33;;;;;;;;;;1891585;76;21104;-41
2021/12/19 06:14:02;;;;;;;5.83;4.17;;;;;;;;;;1891485;76;21030;-42
2021/12/19 06:16:30;;;;;;;6.25;3.37;;;;;;;;;;1891657;76;21010;-41
2021/12/19 06:18:59;;;;;;;4.30;2.90;;;;;;;;;;1891559;76;21062;-42
2021/12/19 06:21:28;;;;;;;3.67;2.60;;;;;;;;;;1891528;76;21109;-41
2021/12/19 06:23:57;;;;;;;7.60;3.40;;;;;;;;;;1891598;76;21140;-41
2021/12/19 06:26:26;;;;;;;5.55;3.55;;;;;;;;;;1891615;76;21038;-42
2021/12/19 06:28:54;;;;;;;5.28;3.67;;;;;;;;;;1891429;76;21046;-42
2021/12/19 06:31:23;;;;;;;5.78;4.05;;;;;;;;;;1891581;75;21108;-42
2021/12/19 06:33:52;;;;;;;6.62;3.15;;;;;;;;;;1891469;76;21035;-42
2021/12/19 06:36:21;;;;;;;4.47;2.85;;;;;;;;;;1891506;75;21103;-42
2021/12/19 06:38:49;;;;;;;4.97;3.27;;;;;;;;;;1891446;76;21042;-42
2021/12/19 06:41:18;;;;;;;8.30;3.83;;;;;;;;;;1891530;76;21104;-42
2021/12/19 06:43:47;;;;;;;7.75;4.37;;;;;;;;;;1891589;75;21046;-42
2021/12/19 06:46:16;;;;;;;10.75;4.55;;;;;;;;;;1891562;76;21088;-42
2021/12/19 06:48:45;;;;;;;8.70;3.42;;;;;;;;;;1891691;76;21030;-42
2021/12/19 06:51:13;;;;;;;4.72;3.12;;;;;;;;;;1891487;76;21168;-41
2021/12/19 06:53:42;;;;;;;4.45;3.10;;;;;;;;;;1891478;76;21042;-42
2021/12/19 06:56:11;;;;;;;3.85;3.12;;;;;;;;;;1891433;75;21203;-42
2021/12/19 06:58:40;;;;;;;6.47;3.67;;;;;;;;;;1891440;76;21104;-42
2021/12/19 07:01:09;;;;;;;9.15;3.52;;;;;;;;;;1891545;76;21574;-42
2021/12/19 07:03:38;;;;;;;8.15;2.83;;;;;;;;;;1891639;76;21042;-42
2021/12/19 07:06:07;;;;;;;3.95;2.50;;;;;;;;;;1891721;76;21077;-41
2021/12/19 07:08:35;;;;;;;3.62;2.40;;;;;;;;;;1891650;76;21046;-42
2021/12/19 07:11:04;;;;;;;4.35;2.77;;;;;;;;;;1891710;76;21038;-41
2021/12/19 07:13:33;;;;;;;6.65;3.12;;;;;;;;;;1891640;76;21024;-42
2021/12/19 07:16:02;;;;;;;5.45;3.47;;;;;;;;;;1891671;76;21018;-41
2021/12/19 07:18:31;;;;;;;4.12;2.67;;;;;;;;;;1888575;75;21027;-42
2021/12/19 07:21:00;;;;;;;6.97;3.15;;;;;;;;;;1872916;75;21023;-42
2021/12/19 07:23:30;;;;;;;8.70;7.70;;;;;;;;;;1872780;77;21035;-42
2021/12/19 07:25:59;;;;;;;4.55;2.65;;;;;;;;;;1873102;77;21023;-42
2021/12/19 07:28:28;;;;;;;4.17;2.70;;;;;;;;;;1872781;77;21085;-41
2021/12/19 07:30:57;;;;;;;5.28;2.50;;;;;;;;;;1872947;77;21141;-41
2021/12/19 07:33:26;;;;;;;4.42;2.87;;;;;;;;;;1872882;76;21043;-42
2021/12/19 07:35:55;;;;;;;6.22;2.77;;;;;;;;;;1872910;76;21023;-42
2021/12/19 07:38:33;;;;;;;5.17;2.67;;;;;;;;;;1872833;77;21431;-41
2021/12/19 07:40:58;;;;;;;12.50;5.35;;;;;;;;;;1872260;76;21489;-41
2021/12/19 07:43:26;;;;;;;5.22;2.92;;;;;;;;;;1872998;76;21563;-42
2021/12/19 07:45:55;;;;;;;2.75;2.25;;;;;;;;;;1873019;77;21023;-42
2021/12/19 07:48:23;;;;;;;4.10;2.70;;;;;;;;;;1872990;77;21105;-42
2021/12/19 07:50:53;;;;;;;3.70;2.72;;;;;;;;;;1872933;76;21101;-42
2021/12/19 07:53:22;;;;;;;4.25;2.47;;;;;;;;;;1872984;77;21043;-41
2021/12/19 07:55:50;;;;;;;5.28;2.90;;;;;;;;;;1872986;75;21023;-41
2021/12/19 07:58:19;;;;;;;5.78;3.25;;;;;;;;;;1872943;77;21011;-42
2021/12/19 08:00:48;;;;;;;2.30;1.47;;;;;;;;;;1873007;77;21043;-43
2021/12/19 08:03:17;;;;;;;3.98;2.52;;;;;;;;;;1872846;76;21071;-41
2021/12/19 08:05:46;;;;;;;4.20;2.55;;;;;;;;;;1873079;77;21051;-42
2021/12/19 08:08:25;;;;;;;3.15;2.37;;;;;;;;;;1872896;76;21070;-42
2021/12/19 08:13:15;;;;;;;4.97;2.77;;;;;;;;;;1872918;76;21113;-43
2021/12/19 08:15:44;;;;;;;6.75;2.67;;;;;;;;;;1872844;76;21047;-42
2021/12/19 08:18:13;;;;;;;6.58;3.45;;;;;;;;;;1872866;76;21130;-41
2021/12/19 08:20:42;;;;;;;5.95;2.52;;;;;;;;;;1889397;76;21058;-42
2021/12/19 08:23:11;;;;;;;4.85;1.98;;;;;;;;;;1891701;76;21109;-41
2021/12/19 08:25:40;;;;;;;7.67;2.30;;;;;;;;;;1891666;76;21111;-41
2021/12/19 08:28:09;;;;;;;3.05;1.92;;;;;;;;;;1891568;76;20994;-42
2021/12/19 08:30:37;;;;;;;2.92;2.08;;;;;;;;;;1891710;76;21073;-41
2021/12/19 08:33:06;;;;;;;1.85;1.25;;;;;;;;;;1891603;76;21070;-41
2021/12/19 08:35:35;;;;;;;5.58;3.37;;;;;;;;;;1891654;75;21030;-42
2021/12/19 08:38:04;;;;;;;4.95;2.47;;;;;;;;;;1891663;75;21191;-42
2021/12/19 08:40:32;;;;;;;5.50;1.57;;;;;;;;;;1891746;76;21042;-41
2021/12/19 08:43:01;;;;;;;2.92;2.02;;;;;;;;;;1891669;76;21038;-42
2021/12/19 08:45:30;;;;;;;12.18;2.87;;;;;;;;;;1891726;76;21108;-41
2021/12/19 08:47:59;;;;;;;3.33;2.33;;;;;;;;;;1891609;76;21030;-41
2021/12/19 08:50:28;;;;;;;3.62;2.55;;;;;;;;;;1891583;75;21045;-42
2021/12/19 08:52:57;;;;;;;3.85;2.10;;;;;;;;;;1891728;76;21035;-42
2021/12/19 08:55:26;;;;;;;4.72;2.10;;;;;;;;;;1891573;76;21116;-42
2021/12/19 08:57:54;;;;;;;4.20;2.20;;;;;;;;;;1891558;75;21031;-42
2021/12/19 09:00:23;;;;;;;12.43;2.90;;;;;;;;;;1891503;76;21096;-42
2021/12/19 09:02:55;;;;;;;4.55;2.17;;;;;;;;;;1891416;76;21011;-42
2021/12/19 09:05:23;;;;;;;5.92;2.33;;;;;;;;;;1891442;75;21775;-41
2021/12/19 09:07:52;;;;;;;6.42;2.55;;;;;;;;;;1891497;76;21030;-41
2021/12/19 09:10:21;;;;;;;5.80;2.15;;;;;;;;;;1891591;76;21539;-42
2021/12/19 09:12:50;;;;;;;2.52;1.92;;;;;;;;;;1891523;76;21112;-41
2021/12/19 09:15:19;;;;;;;8.50;2.33;;;;;;;;;;1891485;76;21019;-41
2021/12/19 09:17:48;;;;;;;4.30;2.22;;;;;;;;;;1891502;76;21049;-41
2021/12/19 09:20:17;;;;;;;4.55;2.72;;;;;;;;;;1881849;76;21055;-42
2021/12/19 09:22:46;;;;;;;8.38;2.98;;;;;;;;;;1872805;77;21003;-42
2021/12/19 09:25:15;;;;;;;6.17;3.12;;;;;;;;;;1872784;76;21030;-41
2021/12/19 09:27:43;;;;;;;6.60;2.65;;;;;;;;;;1872842;77;21039;-41
2021/12/19 09:30:12;;;;;;;5.60;2.87;;;;;;;;;;1872754;76;21003;-42
2021/12/19 09:32:41;;;;;;;12.28;2.40;;;;;;;;;;1872752;77;21089;-42
2021/12/19 09:35:10;;;;;;;7.62;2.98;;;;;;;;;;1872835;76;21066;-45
2021/12/19 09:37:39;;;;;;;3.50;2.15;;;;;;;;;;1872903;77;21003;-42
2021/12/19 09:40:16;;;;;;;3.27;1.70;;;;;;;;;;1872803;77;21205;-43
2021/12/19 09:42:47;;;;;;;7.80;2.90;;;;;;;;;;1872601;76;21063;-42
2021/12/19 09:45:12;;;;;;;5.65;1.80;;;;;;;;;;1872393;76;21486;-42
2021/12/19 09:47:41;;;;;;;11.55;3.52;;;;;;;;;;1872894;77;21105;-42
2021/12/19 09:50:10;;;;;;;4.60;1.55;;;;;;;;;;1872715;77;21105;-43
2021/12/19 09:52:39;;;;;;;5.80;2.12;;;;;;;;;;1872855;77;21105;-43
2021/12/19 09:55:08;;;;;;;7.53;2.65;;;;;;;;;;1872791;77;21082;-43
2021/12/19 09:57:37;;;;;;;6.87;2.33;;;;;;;;;;1872703;76;21035;-42
2021/12/19 10:00:06;;;;;;;8.65;2.20;;;;;;;;;;1872724;77;21113;-44
2021/12/19 10:02:36;;;;;;;5.97;2.02;;;;;;;;;;1872071;76;21042;-43
2021/12/19 10:05:15;;;;;;;3.08;2.10;;;;;;;;;;1872770;77;21034;-44
2021/12/19 10:07:48;;;;;;;2.10;1.60;;;;;;;;;;1872885;77;21140;-42
2021/12/19 10:10:25;;;;;;;5.80;2.10;;;;;;;;;;1871968;76;21113;-42
2021/12/19 10:12:51;;;;;;;9.00;2.77;;;;;;;;;;1872291;76;21465;-42
2021/12/19 10:15:22;;;;;;;3.00;1.95;;;;;;;;;;1872771;77;21047;-42
2021/12/19 10:17:52;;;;;;;6.20;2.00;;;;;;;;;;1872396;76;21116;-43
2021/12/19 10:20:21;;;;;;;9.05;2.60;;;;;;;;;;1878964;75;21057;-43
2021/12/19 10:22:50;;;;;;;4.45;2.17;;;;;;;;;;1891337;75;21034;-42
2021/12/19 10:25:20;;;;;;;9.63;2.47;;;;;;;;;;1891388;75;21100;-42
2021/12/19 10:27:56;;;;;;;1.87;1.72;;;;;;;;;;1891375;76;21083;-43
2021/12/19 10:30:31;;;;;;;6.45;2.58;;;;;;;;;;1891351;76;21030;-42
2021/12/19 10:33:04;;;;;;;5.08;2.60;;;;;;;;;;1891309;76;21023;-42
2021/12/19 10:35:42;;;;;;;2.83;1.80;;;;;;;;;;1891384;76;21437;-43
2021/12/19 10:38:18;;;;;;;13.75;2.72;;;;;;;;;;1891109;75;21338;-43
2021/12/19 10:40:50;;;;;;;9.10;3.30;;;;;;;;;;1891745;76;20990;-43
2021/12/19 10:43:20;;;;;;;2.33;1.75;;;;;;;;;;1891669;76;21129;-42
2021/12/19 10:45:54;;;;;;;3.98;2.55;;;;;;;;;;1891624;76;21066;-43
2021/12/19 10:48:34;;;;;;;3.10;1.60;;;;;;;;;;1891569;76;21085;-43
2021/12/19 10:51:15;;;;;;;1.12;0.90;;;;;;;;;;1891698;76;21038;-43
2021/12/19 10:53:49;;;;;;;6.10;2.60;;;;;;;;;;1891585;76;21210;-44
2021/12/19 10:56:19;;;;;;;2.83;1.95;;;;;;;;;;1891761;76;21155;-43
2021/12/19 10:58:53;;;;;;;3.35;1.60;;;;;;;;;;1891534;76;21065;-43
2021/12/19 11:01:21;;;;;;;12.58;2.58;;;;;;;;;;1888487;75;21571;-44
2021/12/19 11:03:57;;;;;;;8.13;2.83;;;;;;;;;;1891528;76;21026;-43
2021/12/19 11:06:27;;;;;;;6.67;2.05;;;;;;;;;;1891550;76;21014;-43
2021/12/19 11:08:55;;;;;;;4.75;1.90;;;;;;;;;;1891578;76;20987;-45
2021/12/19 11:11:32;;;;;;;6.65;1.85;;;;;;;;;;1891606;75;21039;-44
2021/12/19 11:14:02;;;;;;;1.12;0.85;;;;;;;;;;1891710;76;21014;-44
2021/12/19 11:16:31;;;;;;;2.87;1.70;;;;;;;;;;1891586;76;21566;-42
2021/12/19 11:18:59;;;;;;;4.33;1.25;;;;;;;;;;1891625;76;21038;-43
2021/12/19 11:21:33;;;;;;;4.03;1.90;;;;;;;;;;1891504;75;21163;-43
2021/12/19 11:23:59;;;;;;;3.70;1.60;;;;;;;;;;1891408;75;21481;-43
2021/12/19 11:26:28;;;;;;;4.90;2.25;;;;;;;;;;1891625;76;21085;-43
2021/12/19 11:28:57;;;;;;;3.17;1.40;;;;;;;;;;1891552;76;21070;-42
2021/12/19 11:31:27;;;;;;;4.67;1.95;;;;;;;;;;1891676;76;21100;-43
2021/12/19 11:33:57;;;;;;;3.30;1.90;;;;;;;;;;1891699;76;21531;-44
2021/12/19 11:36:27;;;;;;;25.00;10.20;;;;;;;;;;1891570;76;21054;-43
2021/12/19 11:38:56;;;;;;;8.58;2.67;;;;;;;;;;1891584;76;21031;-43
2021/12/19 11:41:25;;;;;;;2.58;1.67;;;;;;;;;;1891615;76;21010;-43
2021/12/19 11:43:56;;;;;;;6.10;1.67;;;;;;;;;;1891704;76;21015;-42
2021/12/19 11:46:44;;;;;;;6.35;1.42;;;;;;;;;;1891698;76;21026;-43
2021/12/19 11:49:18;;;;;;;6.05;1.95;;;;;;;;;;1891173;75;21477;-43
2021/12/19 11:51:43;;;;;;;3.55;1.07;;;;;;;;;;1891407;75;21477;-44
2021/12/19 11:54:13;;;;;;;3.65;2.02;;;;;;;;;;1891659;76;21037;-42
2021/12/19 11:56:43;;;;;;;14.13;2.52;;;;;;;;;;1890626;75;21084;-43
2021/12/19 11:59:20;;;;;;;8.58;1.25;;;;;;;;;;1888718;76;21131;-43
2021/12/19 12:01:49;;;;;;;4.90;1.40;;;;;;;;;;1891624;75;21109;-43
2021/12/19 12:04:19;;;;;;;1.40;1.00;;;;;;;;;;1891510;76;21159;-42
2021/12/19 12:06:55;;;;;;;3.22;1.40;;;;;;;;;;1891512;76;21026;-42
2021/12/19 12:09:30;;;;;;;5.55;2.90;;;;;;;;;;1891617;76;21023;-43
2021/12/19 12:12:03;;;;;;;8.83;2.92;;;;;;;;;;1891579;76;21597;-42
2021/12/19 12:14:35;;;;;;;2.55;2.17;;;;;;;;;;1891600;76;21050;-43
2021/12/19 12:17:07;;;;;;;1.42;1.17;;;;;;;;;;1891566;76;21023;-43
2021/12/19 12:19:44;;;;;;;1.37;1.12;;;;;;;;;;1891504;75;21187;-42
2021/12/19 12:22:38;;;;;;;16.10;2.27;;;;;;;;;;1876722;75;21109;-44
2021/12/19 12:25:15;;;;;;;3.00;1.20;;;;;;;;;;1872798;76;21054;-41
2021/12/19 12:27:52;;;;;;;24.32;3.08;;;;;;;;;;1872929;77;21023;-42
2021/12/19 12:30:22;;;;;;;2.92;1.50;;;;;;;;;;1872786;77;20999;-41
2021/12/19 12:32:51;;;;;;;5.62;1.72;;;;;;;;;;1871731;76;21059;-42
2021/12/19 12:35:20;;;;;;;3.12;1.72;;;;;;;;;;1872772;76;21035;-41
2021/12/19 12:37:51;;;;;;;6.67;1.50;;;;;;;;;;1872727;77;21003;-41
2021/12/19 12:40:31;;;;;;;3.02;1.50;;;;;;;;;;1872810;76;21109;-41
2021/12/19 12:43:11;;;;;;;5.50;1.67;;;;;;;;;;1872728;76;21043;-42
2021/12/19 12:45:53;;;;;;;4.33;1.42;;;;;;;;;;1872907;77;21031;-41
2021/12/19 12:48:29;;;;;;;2.95;1.40;;;;;;;;;;1872734;76;21501;-42
2021/12/19 12:50:58;;;;;;;1.57;1.30;;;;;;;;;;1872867;77;21098;-43
2021/12/19 12:53:37;;;;;;;3.27;2.00;;;;;;;;;;1872913;75;21035;-42
2021/12/19 12:56:09;;;;;;;6.20;1.37;;;;;;;;;;1872118;76;21031;-44
2021/12/19 12:58:38;;;;;;;2.08;1.30;;;;;;;;;;1872791;76;21641;-41
2021/12/19 13:01:18;;;;;;;3.17;2.02;;;;;;;;;;1872880;76;21035;-43
2021/12/19 13:03:51;;;;;;;1.60;1.20;;;;;;;;;;1872953;77;21015;-42
2021/12/19 13:06:36;;;;;;;3.00;1.50;;;;;;;;;;1865238;76;21019;-42
2021/12/19 13:09:06;;;;;;;1.47;1.37;;;;;;;;;;1782371;80;21085;-42
2021/12/19 13:11:35;;;;;;;2.47;1.67;;;;;;;;;;1845283;76;21058;-41
2021/12/19 13:14:11;;;;;;;2.08;1.80;;;;;;;;;;1872893;76;21102;-42
2021/12/19 13:16:44;;;;;;;1.85;1.40;;;;;;;;;;1872728;76;21059;-41
2021/12/19 13:19:14;;;;;;;3.35;2.35;;;;;;;;;;1872952;77;21105;-42
2021/12/19 13:21:58;;;;;;;2.25;1.60;;;;;;;;;;1854044;76;21030;-42
2021/12/19 13:24:27;;;;;;;1.98;1.62;;;;;;;;;;1891535;76;21038;-41
2021/12/19 13:27:09;;;;;;;9.20;1.90;;;;;;;;;;1891467;76;21030;-42
2021/12/19 13:29:38;;;;;;;21.70;4.87;;;;;;;;;;1891587;76;21077;-41
2021/12/19 13:32:24;;;;;;;4.83;2.55;;;;;;;;;;1891551;76;21096;-41
2021/12/19 13:34:52;;;;;;;4.17;1.75;;;;;;;;;;1891784;76;21539;-42
2021/12/19 13:37:22;;;;;;;2.95;1.67;;;;;;;;;;1891447;76;21147;-41
2021/12/19 13:40:10;;;;;;;1.30;1.20;;;;;;;;;;1891733;76;21003;-41
2021/12/19 13:42:42;;;;;;;2.35;1.50;;;;;;;;;;1891442;76;21100;-41
2021/12/19 13:45:29;;;;;;;5.37;1.45;;;;;;;;;;1891473;76;21511;-42
2021/12/19 13:47:59;;;;;;;3.37;1.52;;;;;;;;;;1891505;75;21086;-42
2021/12/19 13:50:29;;;;;;;7.87;2.83;;;;;;;;;;1891564;76;21512;-41
2021/12/19 13:52:59;;;;;;;9.60;2.20;;;;;;;;;;1891462;76;21054;-40
2021/12/19 13:55:28;;;;;;;3.02;1.40;;;;;;;;;;1891479;76;21151;-41
2021/12/19 13:58:07;;;;;;;1.90;1.52;;;;;;;;;;1891470;75;21015;-41
2021/12/19 14:00:37;;;;;;;3.77;1.80;;;;;;;;;;1890947;75;21120;-41
2021/12/19 14:03:06;;;;;;;3.15;1.60;;;;;;;;;;1891520;76;20990;-43
2021/12/19 14:05:36;;;;;;;3.45;1.90;;;;;;;;;;1891515;76;21092;-42
2021/12/19 14:08:22;;;;;;;10.43;3.08;;;;;;;;;;1891603;76;21031;-41
2021/12/19 14:11:01;;;;;;;6.55;1.70;;;;;;;;;;1891551;76;21038;-42
2021/12/19 14:13:33;;;;;;;6.80;2.72;;;;;;;;;;1891480;76;21100;-42
2021/12/19 14:16:01;;;;;;;12.10;7.12;;;;;;;;;;1891545;75;21625;-41
2021/12/19 14:18:36;;;;;;;6.60;2.17;;;;;;;;;;1871846;76;21022;-42
2021/12/19 14:21:04;;;;;;;3.65;1.80;;;;;;;;;;1885766;75;20999;-44
2021/12/19 14:23:35;;;;;;;3.62;1.92;;;;;;;;;;1891623;76;21062;-42
2021/12/19 14:26:05;;;;;;;4.10;2.02;;;;;;;;;;1891497;75;21058;-42
2021/12/19 14:28:36;;;;;;;4.85;3.08;;;;;;;;;;1891746;76;21014;-42
2021/12/19 14:31:05;;;;;;;2.80;1.92;;;;;;;;;;1891604;76;21445;-42
2021/12/19 14:33:35;;;;;;;10.55;2.47;;;;;;;;;;1891566;76;21018;-42
2021/12/19 14:36:09;;;;;;;2.00;1.80;;;;;;;;;;1891538;76;21453;-41
2021/12/19 14:38:38;;;;;;;5.33;2.58;;;;;;;;;;1891695;76;21026;-41
2021/12/19 14:41:08;;;;;;;3.27;1.82;;;;;;;;;;1891502;76;21610;-41
2021/12/19 14:43:39;;;;;;;2.02;1.82;;;;;;;;;;1891588;76;21109;-41
2021/12/19 14:46:08;;;;;;;2.70;1.72;;;;;;;;;;1891574;76;21089;-42
2021/12/19 14:48:39;;;;;;;1.70;1.42;;;;;;;;;;1891695;76;21042;-43
2021/12/19 14:51:14;;;;;;;1.47;1.37;;;;;;;;;;1891579;75;21504;-42
2021/12/19 14:53:45;;;;;;;13.18;1.72;;;;;;;;;;1891654;75;21111;-41
2021/12/19 14:56:22;;;;;;;2.33;1.77;;;;;;;;;;1891662;76;21030;-41
2021/12/19 14:58:52;;;;;;;2.35;1.75;;;;;;;;;;1891560;76;21167;-41
2021/12/19 15:01:22;;;;;;;2.40;2.00;;;;;;;;;;1891647;76;21038;-41
2021/12/19 15:03:54;;;;;;;7.30;2.35;;;;;;;;;;1891563;76;21050;-42
2021/12/19 15:06:24;;;;;;;3.22;2.20;;;;;;;;;;1871472;76;20998;-42
2021/12/19 15:08:55;;;;;;;2.20;1.52;;;;;;;;;;1891510;76;21084;-43
2021/12/19 15:11:26;;;;;;;2.08;1.30;;;;;;;;;;1891474;76;20999;-43
2021/12/19 15:13:55;;;;;;;2.80;1.82;;;;;;;;;;1891554;76;21050;-41
2021/12/19 15:16:23;;;;;;;4.15;1.80;;;;;;;;;;1891687;76;21003;-42
2021/12/19 15:18:53;;;;;;;6.00;2.12;;;;;;;;;;1891512;76;21034;-42
2021/12/19 15:21:25;;;;;;;1.77;1.60;;;;;;;;;;1891535;76;21030;-41
2021/12/19 15:23:53;;;;;;;2.02;1.82;;;;;;;;;;1891463;75;21544;-43
2021/12/19 15:26:21;;;;;;;2.02;1.62;;;;;;;;;;1891628;76;21002;-41
2021/12/19 15:28:51;;;;;;;3.72;1.82;;;;;;;;;;1891652;76;21130;-42
2021/12/19 15:31:21;;;;;;;2.12;1.47;;;;;;;;;;1891636;76;21038;-42
2021/12/19 15:33:51;;;;;;;4.08;1.75;;;;;;;;;;1891279;75;21038;-41
2021/12/19 15:36:22;;;;;;;2.10;1.55;;;;;;;;;;1891530;76;21034;-42
2021/12/19 15:38:51;;;;;;;2.75;1.70;;;;;;;;;;1891686;76;21034;-41
2021/12/19 15:41:20;;;;;;;3.15;1.90;;;;;;;;;;1891602;76;21143;-42
2021/12/19 15:43:49;;;;;;;3.85;1.40;;;;;;;;;;1891703;76;21108;-41
2021/12/19 15:46:24;;;;;;;2.30;1.52;;;;;;;;;;1891694;76;21042;-41
2021/12/19 15:48:48;;;;;;;4.62;1.65;;;;;;;;;;1891034;75;21567;-42
2021/12/19 15:51:17;;;;;;;2.95;1.50;;;;;;;;;;1891629;76;21006;-43
2021/12/19 15:53:46;;;;;;;4.42;1.30;;;;;;;;;;1891665;76;21117;-42
2021/12/19 15:56:17;;;;;;;4.17;1.07;;;;;;;;;;1891642;76;21116;-41
2021/12/19 15:58:46;;;;;;;6.80;1.80;;;;;;;;;;1891624;76;21018;-41
2021/12/19 16:01:16;;;;;;;8.55;5.03;;;;;;;;;;1891511;76;21051;-42
2021/12/19 16:03:48;;;;;;;1.62;1.52;;;;;;;;;;1891375;75;21104;-42
2021/12/19 16:06:17;;;;;;;5.40;1.65;;;;;;;;;;1891528;76;21038;-42
2021/12/19 16:08:46;;;;;;;2.90;1.47;;;;;;;;;;1891493;76;21026;-43